createdAt,value
2022-12-26T00:01:35.206Z,11.80
2022-12-26T00:04:05.354Z,11.70
2022-12-26T00:06:34.608Z,11.70
2022-12-26T00:09:04.112Z,11.70
2022-12-26T00:11:32.090Z,11.70
2022-12-26T00:14:03.930Z,11.70
2022-12-26T00:16:32.013Z,11.70
2022-12-26T00:19:00.230Z,11.80
2022-12-26T00:21:29.748Z,11.80
2022-12-26T00:23:59.660Z,11.80
2022-12-26T00:26:29.414Z,11.70
2022-12-26T00:28:57.822Z,11.70
2022-12-26T00:31:29.220Z,11.70
2022-12-26T00:33:58.739Z,11.70
2022-12-26T00:36:30.801Z,11.80
2022-12-26T00:39:01.289Z,11.80
2022-12-26T00:41:30.405Z,11.70
2022-12-26T00:43:58.617Z,11.70
2022-12-26T00:46:35.744Z,11.70
2022-12-26T00:49:08.595Z,11.80
2022-12-26T00:51:38.300Z,11.70
2022-12-26T00:54:07.718Z,11.80
2022-12-26T00:56:35.911Z,11.80
2022-12-26T00:59:04.181Z,11.80
2022-12-26T01:01:35.722Z,11.90
2022-12-26T01:04:04.945Z,12.00
2022-12-26T01:06:33.136Z,11.90
2022-12-26T01:09:06.816Z,11.90
2022-12-26T01:11:43.987Z,11.90
2022-12-26T01:14:14.582Z,11.90
2022-12-26T01:16:44.552Z,11.90
2022-12-26T01:19:14.194Z,11.80
2022-12-26T01:21:43.541Z,11.80
2022-12-26T01:24:13.970Z,11.90
2022-12-26T01:26:43.775Z,11.90
2022-12-26T01:29:14.834Z,11.90
2022-12-26T01:31:43.013Z,11.90
2022-12-26T01:34:12.716Z,11.90
2022-12-26T01:36:41.021Z,11.90
2022-12-26T01:39:09.063Z,11.90
2022-12-26T01:41:41.028Z,12.00
2022-12-26T01:44:47.502Z,12.00
2022-12-26T01:47:15.981Z,12.00
2022-12-26T01:49:45.784Z,12.00
2022-12-26T01:52:18.455Z,12.00
2022-12-26T01:54:53.728Z,12.00
2022-12-26T01:57:25.898Z,12.10
2022-12-26T01:59:55.573Z,12.00
2022-12-26T02:02:27.533Z,12.10
2022-12-26T02:05:15.190Z,12.00
2022-12-26T02:07:47.119Z,12.10
2022-12-26T02:10:20.217Z,12.20
2022-12-26T02:12:50.813Z,12.20
2022-12-26T02:15:19.172Z,12.10
2022-12-26T02:17:47.296Z,12.10
2022-12-26T02:20:20.409Z,12.10
2022-12-26T02:23:18.714Z,12.10
2022-12-26T02:26:23.806Z,12.10
2022-12-26T02:29:20.075Z,12.00
2022-12-26T02:31:56.676Z,12.00
2022-12-26T02:34:30.080Z,11.90
2022-12-26T02:37:17.875Z,11.90
2022-12-26T02:40:00.413Z,12.00
2022-12-26T02:42:40.656Z,12.00
2022-12-26T02:45:31.615Z,12.00
2022-12-26T02:48:08.703Z,12.00
2022-12-26T02:51:07.823Z,12.00
2022-12-26T02:54:03.756Z,12.00
2022-12-26T02:56:53.784Z,12.00
2022-12-26T02:59:55.865Z,12.10
2022-12-26T03:02:47.589Z,12.00
2022-12-26T03:05:40.891Z,12.00
2022-12-26T03:08:30.382Z,11.90
2022-12-26T03:11:19.888Z,11.90
2022-12-26T03:13:49.552Z,11.90
2022-12-26T03:16:37.542Z,11.90
2022-12-26T03:19:12.900Z,11.90
2022-12-26T03:21:48.402Z,11.90
2022-12-26T03:24:18.196Z,11.90
2022-12-26T03:26:50.250Z,11.80
2022-12-26T03:29:38.633Z,11.80
2022-12-26T03:32:09.890Z,11.80
2022-12-26T03:34:43.412Z,11.80
2022-12-26T03:37:49.234Z,11.80
2022-12-26T03:40:58.567Z,11.80
2022-12-26T03:43:58.709Z,11.80
2022-12-26T03:46:58.712Z,11.80
2022-12-26T03:49:49.313Z,11.90
2022-12-26T03:52:48.599Z,11.90
2022-12-26T03:55:38.306Z,11.80
2022-12-26T03:58:32.078Z,11.80
2022-12-26T04:01:20.090Z,11.70
2022-12-26T04:04:14.699Z,11.70
2022-12-26T04:07:05.474Z,11.80
2022-12-26T04:09:54.516Z,11.80
2022-12-26T04:12:43.309Z,11.70
2022-12-26T04:15:37.586Z,11.70
2022-12-26T04:18:27.194Z,11.70
2022-12-26T04:21:05.380Z,11.80
2022-12-26T04:23:58.489Z,11.70
2022-12-26T04:26:51.092Z,11.60
2022-12-26T04:29:39.750Z,11.50
2022-12-26T04:32:34.777Z,11.50
2022-12-26T04:35:28.228Z,11.60
2022-12-26T04:38:17.621Z,11.60
2022-12-26T04:41:08.003Z,11.60
2022-12-26T04:43:56.072Z,11.60
2022-12-26T04:46:25.980Z,11.60
2022-12-26T04:49:13.311Z,11.50
2022-12-26T04:51:41.400Z,11.50
2022-12-26T04:54:09.631Z,11.60
2022-12-26T04:56:38.859Z,11.50
2022-12-26T04:59:08.319Z,11.50
2022-12-26T05:01:54.381Z,11.60
2022-12-26T05:04:40.331Z,11.50
2022-12-26T05:07:33.357Z,11.60
2022-12-26T05:10:03.732Z,11.60
2022-12-26T05:12:33.896Z,11.70
2022-12-26T05:15:03.272Z,11.70
2022-12-26T05:17:49.005Z,11.70
2022-12-26T05:20:34.803Z,11.70
2022-12-26T05:23:21.572Z,11.70
2022-12-26T05:26:07.483Z,11.70
2022-12-26T05:28:44.627Z,11.70
2022-12-26T05:31:16.220Z,11.70
2022-12-26T05:34:02.455Z,11.70
2022-12-26T05:36:32.844Z,11.70
2022-12-26T05:39:02.078Z,11.70
2022-12-26T05:41:30.271Z,11.70
2022-12-26T05:43:58.675Z,11.70
2022-12-26T05:46:29.001Z,11.70
2022-12-26T05:48:57.156Z,11.60
2022-12-26T05:51:29.493Z,11.60
2022-12-26T05:53:57.581Z,11.60
2022-12-26T05:56:25.822Z,11.70
2022-12-26T05:58:56.038Z,11.80
2022-12-26T06:01:24.934Z,11.70
2022-12-26T06:03:57.726Z,11.70
2022-12-26T06:06:29.951Z,11.80
2022-12-26T06:08:58.285Z,11.80
2022-12-26T06:11:27.940Z,11.80
2022-12-26T06:13:56.577Z,11.80
2022-12-26T06:16:27.643Z,11.80
2022-12-26T06:18:58.768Z,11.80
2022-12-26T06:21:27.075Z,11.90
2022-12-26T06:23:55.021Z,11.90
2022-12-26T06:26:23.096Z,11.80
2022-12-26T06:28:51.140Z,11.80
2022-12-26T06:31:22.264Z,11.80
2022-12-26T06:33:51.627Z,11.70
2022-12-26T06:36:23.451Z,11.70
2022-12-26T06:38:52.212Z,11.70
2022-12-26T06:41:22.071Z,11.70
2022-12-26T06:43:55.778Z,11.80
2022-12-26T06:46:25.917Z,11.80
2022-12-26T06:48:57.104Z,11.70
2022-12-26T06:51:28.568Z,11.70
2022-12-26T06:54:03.931Z,11.70
2022-12-26T06:56:34.461Z,11.70
2022-12-26T06:59:04.716Z,11.60
2022-12-26T07:01:34.743Z,11.60
2022-12-26T07:04:04.224Z,11.60
2022-12-26T07:06:37.864Z,11.60
2022-12-26T07:09:13.181Z,11.60
2022-12-26T07:11:51.438Z,11.60
2022-12-26T07:14:19.661Z,11.60
2022-12-26T07:16:49.371Z,11.50
2022-12-26T07:19:26.872Z,11.40
2022-12-26T07:21:59.801Z,11.50
2022-12-26T07:24:27.742Z,11.50
2022-12-26T07:26:55.706Z,11.40
2022-12-26T07:29:25.660Z,11.40
2022-12-26T07:31:53.547Z,11.30
2022-12-26T07:34:25.149Z,11.40
2022-12-26T07:36:56.065Z,11.30
2022-12-26T07:39:32.867Z,11.30
2022-12-26T07:42:02.763Z,11.30
2022-12-26T07:44:35.332Z,11.30
2022-12-26T07:47:09.070Z,11.30
2022-12-26T07:49:39.464Z,11.20
2022-12-26T07:52:09.822Z,11.20
2022-12-26T07:54:42.114Z,11.20
2022-12-26T07:57:46.322Z,11.20
2022-12-26T07:59:58.330Z,11.20
2022-12-26T08:02:26.788Z,11.10
2022-12-26T08:05:00.611Z,11.10
2022-12-26T08:07:38.344Z,11.00
2022-12-26T08:10:09.615Z,11.00
2022-12-26T08:12:39.948Z,10.90
2022-12-26T08:15:10.167Z,10.80
2022-12-26T08:17:38.255Z,10.70
2022-12-26T08:20:11.129Z,10.60
2022-12-26T08:22:39.995Z,10.60
2022-12-26T08:25:12.505Z,10.50
2022-12-26T08:27:43.155Z,10.40
2022-12-26T08:30:15.168Z,10.30
2022-12-26T08:32:46.760Z,10.30
2022-12-26T08:35:18.771Z,10.30
2022-12-26T08:37:48.719Z,10.30
2022-12-26T08:40:40.041Z,10.40
2022-12-26T08:43:53.190Z,10.40
2022-12-26T08:46:04.266Z,10.30
2022-12-26T08:48:47.323Z,10.30
2022-12-26T08:51:21.679Z,10.30
2022-12-26T08:53:51.001Z,10.30
2022-12-26T08:56:25.524Z,10.30
2022-12-26T08:58:56.863Z,10.30
2022-12-26T09:01:28.128Z,10.30
2022-12-26T09:04:03.138Z,10.30
2022-12-26T09:06:34.262Z,10.30
2022-12-26T09:09:03.903Z,10.30
2022-12-26T09:11:34.312Z,10.30
2022-12-26T09:14:05.137Z,10.30
2022-12-26T09:16:39.995Z,10.30
2022-12-26T09:19:13.147Z,10.30
2022-12-26T09:21:50.845Z,10.40
2022-12-26T09:24:19.969Z,10.40
2022-12-26T09:26:49.840Z,10.40
2022-12-26T09:29:18.120Z,10.40
2022-12-26T09:31:48.053Z,10.40
2022-12-26T09:34:26.281Z,10.30
2022-12-26T09:37:00.194Z,10.30
2022-12-26T09:39:31.457Z,10.40
2022-12-26T09:42:09.758Z,10.40
2022-12-26T09:44:49.200Z,10.40
2022-12-26T09:47:31.072Z,10.40
2022-12-26T09:50:04.480Z,10.30
2022-12-26T09:52:41.356Z,10.40
2022-12-26T09:55:33.597Z,10.40
2022-12-26T09:58:19.528Z,10.40
2022-12-26T10:00:52.988Z,10.40
2022-12-26T10:03:21.379Z,10.40
2022-12-26T10:06:03.349Z,10.40
2022-12-26T10:08:47.980Z,10.40
2022-12-26T10:11:24.694Z,10.40
2022-12-26T10:14:00.135Z,10.40
2022-12-26T10:16:40.029Z,10.40
2022-12-26T10:19:19.874Z,10.40
2022-12-26T10:21:59.373Z,10.40
2022-12-26T10:24:34.413Z,10.50
2022-12-26T10:27:06.487Z,10.50
2022-12-26T10:29:42.962Z,10.60
2022-12-26T10:32:16.033Z,10.50
2022-12-26T10:34:45.862Z,10.50
2022-12-26T10:37:24.311Z,10.50
2022-12-26T10:39:57.421Z,10.50
2022-12-26T10:42:32.558Z,10.50
2022-12-26T10:45:03.428Z,10.50
2022-12-26T10:47:36.730Z,10.50
2022-12-26T10:50:08.992Z,10.50
2022-12-26T10:52:41.024Z,10.50
2022-12-26T10:55:28.384Z,10.50
2022-12-26T10:58:04.955Z,10.50
2022-12-26T11:00:36.373Z,10.50
2022-12-26T11:03:10.241Z,10.50
2022-12-26T11:08:40.872Z,10.60
2022-12-26T11:11:15.508Z,10.60
2022-12-26T11:13:49.164Z,10.50
2022-12-26T11:16:31.209Z,10.60
2022-12-26T11:19:00.073Z,10.50
2022-12-26T11:21:30.191Z,10.50
2022-12-26T11:24:18.562Z,10.60
2022-12-26T11:26:49.086Z,10.60
2022-12-26T11:29:19.380Z,10.60
2022-12-26T11:31:57.527Z,10.60
2022-12-26T11:34:32.725Z,10.60
2022-12-26T11:37:01.037Z,10.70
2022-12-26T11:39:38.045Z,10.60
2022-12-26T11:42:14.952Z,10.60
2022-12-26T11:44:46.322Z,10.60
2022-12-26T11:47:19.832Z,10.70
2022-12-26T11:49:57.248Z,10.70
2022-12-26T11:52:37.611Z,10.80
2022-12-26T11:55:32.622Z,10.80
2022-12-26T11:58:06.227Z,10.80
2022-12-26T12:00:36.433Z,10.70
2022-12-26T12:03:13.358Z,10.70
2022-12-26T12:05:51.712Z,10.70
2022-12-26T12:08:30.437Z,10.80
2022-12-26T12:11:17.385Z,10.70
2022-12-26T12:13:59.053Z,10.70
2022-12-26T12:16:39.788Z,10.70
2022-12-26T12:19:25.588Z,10.70
2022-12-26T12:22:20.198Z,10.70
2022-12-26T12:25:17.163Z,10.80
2022-12-26T12:27:52.945Z,10.80
2022-12-26T12:30:25.999Z,10.90
2022-12-26T12:33:15.631Z,10.90
2022-12-26T12:35:54.156Z,10.90
2022-12-26T12:38:33.008Z,10.80
2022-12-26T12:41:15.409Z,10.80
2022-12-26T12:43:50.054Z,10.80
2022-12-26T12:46:30.251Z,10.80
2022-12-26T12:49:14.568Z,10.70
2022-12-26T12:51:53.570Z,10.70
2022-12-26T12:55:05.470Z,10.70
2022-12-26T12:57:42.680Z,10.70
2022-12-26T13:00:16.318Z,10.70
2022-12-26T13:02:49.959Z,10.70
2022-12-26T13:05:27.555Z,10.80
2022-12-26T13:08:03.125Z,10.80
2022-12-26T13:10:34.555Z,10.80
2022-12-26T13:13:23.543Z,10.80
2022-12-26T13:15:56.408Z,10.80
2022-12-26T13:18:28.673Z,10.80
2022-12-26T13:21:02.382Z,10.80
2022-12-26T13:23:53.898Z,10.80
2022-12-26T13:26:27.735Z,10.80
2022-12-26T13:29:03.728Z,10.80
2022-12-26T13:31:34.953Z,10.80
2022-12-26T13:34:04.298Z,10.80
2022-12-26T13:36:42.059Z,10.80
2022-12-26T13:39:34.431Z,10.70
2022-12-26T13:43:01.473Z,10.70
2022-12-26T13:46:01.070Z,10.70
2022-12-26T13:49:06.365Z,10.70
2022-12-26T13:51:52.912Z,10.70
2022-12-26T13:54:22.801Z,10.70
2022-12-26T13:57:18.410Z,10.70
2022-12-26T13:59:58.167Z,10.70
2022-12-26T14:03:20.147Z,10.70
2022-12-26T14:06:17.696Z,10.70
2022-12-26T14:09:04.973Z,10.70
2022-12-26T14:11:47.670Z,10.80
2022-12-26T14:14:27.957Z,10.80
2022-12-26T14:17:10.069Z,10.80
2022-12-26T14:19:48.769Z,10.80
2022-12-26T14:22:24.495Z,10.90
2022-12-26T14:25:05.620Z,10.90
2022-12-26T14:27:44.613Z,10.90
2022-12-26T14:30:29.234Z,10.90
2022-12-26T14:33:20.712Z,10.80
2022-12-26T14:35:59.294Z,10.60
2022-12-26T14:38:38.978Z,10.50
2022-12-26T14:41:10.920Z,10.20
2022-12-26T14:43:51.011Z,9.70
2022-12-26T14:47:02.561Z,9.30
2022-12-26T14:49:40.980Z,9.00
2022-12-26T14:52:37.541Z,8.80
2022-12-26T14:55:56.868Z,8.70
2022-12-26T14:58:43.875Z,8.70
2022-12-26T15:01:46.724Z,8.60
2022-12-26T15:04:51.256Z,8.60
2022-12-26T15:07:54.919Z,8.60
2022-12-26T15:10:51.397Z,8.60
2022-12-26T15:13:47.793Z,8.70
2022-12-26T15:16:30.556Z,8.70
2022-12-26T15:19:27.613Z,8.70
2022-12-26T15:22:25.879Z,8.80
2022-12-26T15:25:27.824Z,8.80
2022-12-26T15:28:29.780Z,8.90
2022-12-26T15:31:14.197Z,8.90
2022-12-26T15:33:47.753Z,8.90
2022-12-26T15:36:25.198Z,8.90
2022-12-26T15:39:04.305Z,8.80
2022-12-26T15:41:40.495Z,8.90
2022-12-26T15:44:26.532Z,8.90
2022-12-26T15:47:05.640Z,8.90
2022-12-26T15:49:58.811Z,8.90
2022-12-26T15:52:38.374Z,8.90
2022-12-26T15:55:30.807Z,8.90
2022-12-26T15:58:03.689Z,8.90
2022-12-26T16:00:34.577Z,8.80
2022-12-26T16:03:21.483Z,8.80
2022-12-26T16:05:56.193Z,8.80
2022-12-26T16:08:55.065Z,8.90
2022-12-26T16:11:25.293Z,8.90
2022-12-26T16:13:57.566Z,8.70
2022-12-26T16:16:33.716Z,8.70
2022-12-26T16:19:17.354Z,8.70
2022-12-26T16:22:07.362Z,8.60
2022-12-26T16:24:37.369Z,8.60
2022-12-26T16:27:08.306Z,8.40
2022-12-26T16:29:45.931Z,8.30
2022-12-26T16:32:18.875Z,8.20
2022-12-26T16:34:48.659Z,8.20
2022-12-26T16:37:20.801Z,8.20
2022-12-26T16:40:24.744Z,8.20
2022-12-26T16:42:59.897Z,8.20
2022-12-26T16:45:30.276Z,8.10
2022-12-26T16:48:00.100Z,8.10
2022-12-26T16:50:32.259Z,8.10
2022-12-26T16:53:19.954Z,8.10
2022-12-26T16:55:51.110Z,8.10
2022-12-26T16:58:25.028Z,8.00
2022-12-26T17:01:06.119Z,8.00
2022-12-26T17:03:48.943Z,8.00
2022-12-26T17:06:19.268Z,8.00
2022-12-26T17:08:50.524Z,8.00
2022-12-26T17:11:26.960Z,8.00
2022-12-26T17:13:58.849Z,8.00
2022-12-26T17:16:30.542Z,8.00
2022-12-26T17:19:11.090Z,8.00
2022-12-26T17:21:39.194Z,8.10
2022-12-26T17:24:30.755Z,8.00
2022-12-26T17:27:21.018Z,8.00
2022-12-26T17:29:58.127Z,8.00
2022-12-26T17:32:34.074Z,8.10
2022-12-26T17:35:08.908Z,8.10
2022-12-26T17:37:37.777Z,8.10
2022-12-26T17:40:22.133Z,8.20
2022-12-26T17:42:54.591Z,8.30
2022-12-26T17:45:25.595Z,8.30
2022-12-26T17:47:54.749Z,8.00
2022-12-26T17:50:26.406Z,7.90
2022-12-26T17:52:54.482Z,7.90
2022-12-26T17:55:27.477Z,7.90
2022-12-26T17:57:55.484Z,8.00
2022-12-26T18:00:27.114Z,8.10
2022-12-26T18:02:55.728Z,8.20
2022-12-26T18:05:28.298Z,8.20
2022-12-26T18:07:56.842Z,8.20
2022-12-26T18:10:30.713Z,8.20
2022-12-26T18:12:59.747Z,8.20
2022-12-26T18:15:29.005Z,8.30
2022-12-26T18:17:57.740Z,8.20
2022-12-26T18:20:29.778Z,8.10
2022-12-26T18:22:58.787Z,8.10
2022-12-26T18:25:28.923Z,8.10
2022-12-26T18:27:57.066Z,8.10
2022-12-26T18:30:27.725Z,8.00
2022-12-26T18:32:55.973Z,8.00
2022-12-26T18:35:24.029Z,8.10
2022-12-26T18:37:54.797Z,8.10
2022-12-26T18:40:29.946Z,8.10
2022-12-26T18:42:58.099Z,8.00
2022-12-26T18:45:27.033Z,7.90
2022-12-26T18:47:55.252Z,7.80
2022-12-26T18:50:24.219Z,7.90
2022-12-26T18:52:56.050Z,7.90
2022-12-26T18:55:25.536Z,7.90
2022-12-26T18:57:55.308Z,7.70
2022-12-26T19:00:24.772Z,7.60
2022-12-26T19:02:53.002Z,7.60
2022-12-26T19:05:23.702Z,7.50
2022-12-26T19:07:56.136Z,7.50
2022-12-26T19:10:26.978Z,7.50
2022-12-26T19:12:59.782Z,7.50
2022-12-26T19:15:30.906Z,7.60
2022-12-26T19:18:02.059Z,7.60
2022-12-26T19:20:30.184Z,7.60
2022-12-26T19:22:59.618Z,7.60
2022-12-26T19:25:27.844Z,7.60
2022-12-26T19:27:56.510Z,7.50
2022-12-26T19:30:24.884Z,7.50
2022-12-26T19:32:54.920Z,7.40
2022-12-26T19:35:25.515Z,7.50
2022-12-26T19:37:55.092Z,7.40
2022-12-26T19:40:25.386Z,7.20
2022-12-26T19:42:54.621Z,7.30
2022-12-26T19:45:25.525Z,7.10
2022-12-26T19:47:56.636Z,7.00
2022-12-26T19:50:24.975Z,6.90
2022-12-26T19:52:53.148Z,6.90
2022-12-26T19:55:21.120Z,6.90
2022-12-26T19:57:50.943Z,6.90
2022-12-26T20:00:19.314Z,6.80
2022-12-26T20:02:47.946Z,6.80
2022-12-26T20:05:15.900Z,6.80
2022-12-26T20:07:46.055Z,6.70
2022-12-26T20:10:14.108Z,6.50
2022-12-26T20:12:45.127Z,6.50
2022-12-26T20:15:14.995Z,6.50
2022-12-26T20:17:43.007Z,6.40
2022-12-26T20:20:11.511Z,6.30
2022-12-26T20:22:40.059Z,6.30
2022-12-26T20:25:10.054Z,6.20
2022-12-26T20:27:38.430Z,6.20
2022-12-26T20:30:09.523Z,6.20
2022-12-26T20:32:44.240Z,6.10
2022-12-26T20:35:15.125Z,6.10
2022-12-26T20:37:43.579Z,6.10
2022-12-26T20:40:14.909Z,6.10
2022-12-26T20:42:45.440Z,6.10
2022-12-26T20:45:15.447Z,6.00
2022-12-26T20:47:46.830Z,6.00
2022-12-26T20:50:17.019Z,6.10
2022-12-26T20:52:47.987Z,6.10
2022-12-26T20:55:19.021Z,6.10
2022-12-26T20:57:50.342Z,6.00
2022-12-26T21:00:21.556Z,5.90
2022-12-26T21:02:53.485Z,6.00
2022-12-26T21:05:22.917Z,6.00
2022-12-26T21:07:51.177Z,6.00
2022-12-26T21:10:22.192Z,5.90
2022-12-26T21:12:52.263Z,6.00
2022-12-26T21:15:23.053Z,5.80
2022-12-26T21:17:55.108Z,5.90
2022-12-26T21:20:23.249Z,5.90
2022-12-26T21:22:56.013Z,6.00
2022-12-26T21:25:24.548Z,5.90
2022-12-26T21:27:59.226Z,5.90
2022-12-26T21:30:30.654Z,6.00
2022-12-26T21:33:00.052Z,6.00
2022-12-26T21:35:31.074Z,6.00
2022-12-26T21:37:59.348Z,6.10
2022-12-26T21:40:27.773Z,6.00
2022-12-26T21:42:57.018Z,6.00
2022-12-26T21:45:26.369Z,6.10
2022-12-26T21:47:54.275Z,6.00
2022-12-26T21:50:23.547Z,5.90
2022-12-26T21:52:56.307Z,5.90
2022-12-26T21:55:28.327Z,5.80
2022-12-26T21:57:59.118Z,5.60
2022-12-26T22:00:29.028Z,5.50
2022-12-26T22:03:14.911Z,5.50
2022-12-26T22:05:44.733Z,5.40
2022-12-26T22:08:13.567Z,5.20
2022-12-26T22:11:02.357Z,5.20
2022-12-26T22:13:32.349Z,5.10
2022-12-26T22:16:07.574Z,5.10
2022-12-26T22:18:40.826Z,5.00
2022-12-26T22:21:12.347Z,5.00
2022-12-26T22:23:42.091Z,4.90
2022-12-26T22:26:14.627Z,4.90
2022-12-26T22:28:45.383Z,4.90
2022-12-26T22:31:25.078Z,4.70
2022-12-26T22:33:56.797Z,4.70
2022-12-26T22:36:27.106Z,4.60
2022-12-26T22:38:55.482Z,4.60
2022-12-26T22:41:23.938Z,4.50
2022-12-26T22:43:52.429Z,4.50
2022-12-26T22:46:20.430Z,4.40
2022-12-26T22:48:48.458Z,4.40
2022-12-26T22:51:19.578Z,4.30
2022-12-26T22:53:49.251Z,4.20
2022-12-26T22:56:17.545Z,4.20
2022-12-26T22:58:45.698Z,4.20
2022-12-26T23:01:15.625Z,4.10
2022-12-26T23:03:43.786Z,3.90
2022-12-26T23:06:22.725Z,3.80
2022-12-26T23:08:54.541Z,3.70
2022-12-26T23:11:27.420Z,3.40
2022-12-26T23:14:01.083Z,3.10
2022-12-26T23:16:35.179Z,3.00
2022-12-26T23:19:28.214Z,3.00
2022-12-26T23:21:57.425Z,3.00
2022-12-26T23:24:28.773Z,2.90
2022-12-26T23:27:20.100Z,2.90
2022-12-26T23:30:05.756Z,2.90
2022-12-26T23:32:37.381Z,2.90
2022-12-26T23:35:06.514Z,2.90
2022-12-26T23:37:34.662Z,2.80
2022-12-26T23:40:04.859Z,2.90
2022-12-26T23:42:33.049Z,2.90
2022-12-26T23:45:01.021Z,2.90
2022-12-26T23:47:29.262Z,2.90
2022-12-26T23:49:57.622Z,2.90
2022-12-26T23:52:30.233Z,2.90
2022-12-26T23:54:59.003Z,2.80
2022-12-26T23:57:28.524Z,2.80
